sensor_id;sensor_type;location;lat;lon;timestamp;pressure;altitude;pressure_sealevel;temperature;humidity
66430;BME280;53242;51.694;10.006;2023-02-21T00:02:34;99707.81;;;8.44;89.87
66430;BME280;53242;51.694;10.006;2023-02-21T00:05:15;99698.09;;;8.44;89.63
66430;BME280;53242;51.694;10.006;2023-02-21T00:07:56;99702.22;;;8.47;89.57
66430;BME280;53242;51.694;10.006;2023-02-21T00:10:37;99703.25;;;8.37;90.25
66430;BME280;53242;51.694;10.006;2023-02-21T00:13:18;99708.84;;;8.34;90.09
66430;BME280;53242;51.694;10.006;2023-02-21T00:15:58;99721.78;;;8.44;89.84
66430;BME280;53242;51.694;10.006;2023-02-21T00:18:40;99720.56;;;8.55;89.44
66430;BME280;53242;51.694;10.006;2023-02-21T00:21:22;99726.66;;;8.55;89.01
66430;BME280;53242;51.694;10.006;2023-02-21T00:24:03;99733.38;;;8.58;89.06
66430;BME280;53242;51.694;10.006;2023-02-21T00:26:44;99730.22;;;8.63;88.93
66430;BME280;53242;51.694;10.006;2023-02-21T00:29:25;99730.88;;;8.65;88.88
66430;BME280;53242;51.694;10.006;2023-02-21T00:32:06;99731.84;;;8.64;88.84
66430;BME280;53242;51.694;10.006;2023-02-21T00:34:47;99733.91;;;8.53;89.17
66430;BME280;53242;51.694;10.006;2023-02-21T00:37:28;99734.16;;;8.67;88.58
66430;BME280;53242;51.694;10.006;2023-02-21T00:40:11;99737.47;;;8.61;88.99
66430;BME280;53242;51.694;10.006;2023-02-21T00:42:53;99743.22;;;8.64;88.90
66430;BME280;53242;51.694;10.006;2023-02-21T00:45:34;99741.56;;;8.63;88.93
66430;BME280;53242;51.694;10.006;2023-02-21T00:48:22;99743.84;;;8.66;89.10
66430;BME280;53242;51.694;10.006;2023-02-21T00:51:03;99733.31;;;8.66;89.12
66430;BME280;53242;51.694;10.006;2023-02-21T00:53:44;99734.47;;;8.64;89.35
66430;BME280;53242;51.694;10.006;2023-02-21T00:56:25;99734.31;;;8.65;89.27
66430;BME280;53242;51.694;10.006;2023-02-21T00:59:06;99729.69;;;8.67;89.39
66430;BME280;53242;51.694;10.006;2023-02-21T01:01:47;99731.66;;;8.65;89.55
66430;BME280;53242;51.694;10.006;2023-02-21T01:04:28;99733.78;;;8.70;89.38
66430;BME280;53242;51.694;10.006;2023-02-21T01:07:09;99730.22;;;8.63;89.66
66430;BME280;53242;51.694;10.006;2023-02-21T01:09:50;99732.50;;;8.66;89.67
66430;BME280;53242;51.694;10.006;2023-02-21T01:12:32;99717.34;;;8.68;89.38
66430;BME280;53242;51.694;10.006;2023-02-21T01:15:13;99719.34;;;8.66;89.59
66430;BME280;53242;51.694;10.006;2023-02-21T01:17:55;99711.78;;;8.63;89.90
66430;BME280;53242;51.694;10.006;2023-02-21T01:20:35;99704.91;;;8.62;89.94
66430;BME280;53242;51.694;10.006;2023-02-21T01:23:16;99697.66;;;8.64;89.75
66430;BME280;53242;51.694;10.006;2023-02-21T01:25:58;99712.16;;;8.60;90.17
66430;BME280;53242;51.694;10.006;2023-02-21T01:28:39;99714.44;;;8.63;90.00
66430;BME280;53242;51.694;10.006;2023-02-21T01:31:20;99722.78;;;8.66;89.92
66430;BME280;53242;51.694;10.006;2023-02-21T01:34:01;99716.16;;;8.70;89.54
66430;BME280;53242;51.694;10.006;2023-02-21T01:36:43;99729.69;;;8.67;89.50
66430;BME280;53242;51.694;10.006;2023-02-21T01:39:24;99729.34;;;8.70;89.18
66430;BME280;53242;51.694;10.006;2023-02-21T01:42:05;99733.41;;;8.73;89.13
66430;BME280;53242;51.694;10.006;2023-02-21T01:44:47;99728.72;;;8.68;89.38
66430;BME280;53242;51.694;10.006;2023-02-21T01:47:29;99737.13;;;8.64;89.36
66430;BME280;53242;51.694;10.006;2023-02-21T01:50:30;99729.34;;;8.70;89.12
66430;BME280;53242;51.694;10.006;2023-02-21T01:53:17;99728.00;;;8.75;88.76
66430;BME280;53242;51.694;10.006;2023-02-21T01:56:00;99722.91;;;8.73;88.96
66430;BME280;53242;51.694;10.006;2023-02-21T01:58:44;99728.16;;;8.73;88.96
66430;BME280;53242;51.694;10.006;2023-02-21T02:01:34;99732.50;;;8.66;89.40
66430;BME280;53242;51.694;10.006;2023-02-21T02:04:17;99716.25;;;8.62;89.62
66430;BME280;53242;51.694;10.006;2023-02-21T02:06:58;99712.09;;;8.68;89.24
66430;BME280;53242;51.694;10.006;2023-02-21T02:09:39;99724.91;;;8.71;89.37
66430;BME280;53242;51.694;10.006;2023-02-21T02:12:30;99720.13;;;8.75;88.94
66430;BME280;53242;51.694;10.006;2023-02-21T02:18:08;99725.13;;;8.84;87.67
66430;BME280;53242;51.694;10.006;2023-02-21T02:21:16;99716.22;;;8.85;87.73
66430;BME280;53242;51.694;10.006;2023-02-21T02:30:04;99708.84;;;8.81;87.83
66430;BME280;53242;51.694;10.006;2023-02-21T02:38:22;99721.69;;;8.84;87.91
66430;BME280;53242;51.694;10.006;2023-02-21T02:40:53;99721.88;;;8.82;88.14
66430;BME280;53242;51.694;10.006;2023-02-21T02:43:34;99719.56;;;8.79;88.25
66430;BME280;53242;51.694;10.006;2023-02-21T02:46:14;99732.03;;;8.85;88.21
66430;BME280;53242;51.694;10.006;2023-02-21T02:48:43;99726.47;;;8.80;88.14
66430;BME280;53242;51.694;10.006;2023-02-21T02:51:13;99728.91;;;8.82;88.20
66430;BME280;53242;51.694;10.006;2023-02-21T02:53:36;99728.41;;;8.86;87.89
66430;BME280;53242;51.694;10.006;2023-02-21T02:56:03;99731.50;;;8.90;87.61
66430;BME280;53242;51.694;10.006;2023-02-21T02:58:39;99735.47;;;8.86;87.67
66430;BME280;53242;51.694;10.006;2023-02-21T03:08:23;99729.31;;;8.94;87.38
66430;BME280;53242;51.694;10.006;2023-02-21T03:10:34;99730.31;;;8.93;87.51
66430;BME280;53242;51.694;10.006;2023-02-21T03:15:33;99731.13;;;8.93;87.58
66430;BME280;53242;51.694;10.006;2023-02-21T03:18:15;99730.94;;;8.95;87.84
66430;BME280;53242;51.694;10.006;2023-02-21T03:20:40;99732.69;;;8.87;88.05
66430;BME280;53242;51.694;10.006;2023-02-21T03:23:05;99740.91;;;8.84;88.22
66430;BME280;53242;51.694;10.006;2023-02-21T03:25:29;99737.47;;;8.84;88.51
66430;BME280;53242;51.694;10.006;2023-02-21T03:27:58;99733.84;;;8.85;88.63
66430;BME280;53242;51.694;10.006;2023-02-21T03:30:25;99737.97;;;8.79;89.08
66430;BME280;53242;51.694;10.006;2023-02-21T03:32:51;99737.97;;;8.79;89.33
66430;BME280;53242;51.694;10.006;2023-02-21T03:35:15;99739.81;;;8.79;89.52
66430;BME280;53242;51.694;10.006;2023-02-21T03:37:41;99733.00;;;8.84;89.17
66430;BME280;53242;51.694;10.006;2023-02-21T03:40:08;99726.47;;;8.80;89.66
66430;BME280;53242;51.694;10.006;2023-02-21T03:42:34;99726.84;;;8.77;90.03
66430;BME280;53242;51.694;10.006;2023-02-21T03:44:57;99722.19;;;8.79;89.75
66430;BME280;53242;51.694;10.006;2023-02-21T03:47:19;99728.00;;;8.75;89.97
66430;BME280;53242;51.694;10.006;2023-02-21T03:49:41;99733.41;;;8.73;90.03
66430;BME280;53242;51.694;10.006;2023-02-21T03:52:04;99719.47;;;8.72;90.05
66430;BME280;53242;51.694;10.006;2023-02-21T03:54:27;99732.09;;;8.77;89.84
66430;BME280;53242;51.694;10.006;2023-02-21T03:56:52;99734.25;;;8.74;89.88
66430;BME280;53242;51.694;10.006;2023-02-21T03:59:24;99722.28;;;8.71;90.11
66430;BME280;53242;51.694;10.006;2023-02-21T04:01:48;99721.56;;;8.77;89.63
66430;BME280;53242;51.694;10.006;2023-02-21T04:04:12;99726.94;;;8.84;89.29
66430;BME280;53242;51.694;10.006;2023-02-21T04:06:34;99722.09;;;8.72;89.89
66430;BME280;53242;51.694;10.006;2023-02-21T04:08:57;99716.34;;;8.69;89.87
66430;BME280;53242;51.694;10.006;2023-02-21T04:11:21;99716.94;;;8.79;89.69
66430;BME280;53242;51.694;10.006;2023-02-21T04:13:45;99718.09;;;8.77;89.54
66430;BME280;53242;51.694;10.006;2023-02-21T04:16:07;99710.88;;;8.79;89.50
66430;BME280;53242;51.694;10.006;2023-02-21T04:18:31;99712.94;;;8.83;89.35
66430;BME280;53242;51.694;10.006;2023-02-21T04:20:56;99703.16;;;8.77;89.46
66430;BME280;53242;51.694;10.006;2023-02-21T04:23:20;99710.03;;;8.78;89.33
66430;BME280;53242;51.694;10.006;2023-02-21T04:25:43;99712.13;;;8.83;89.26
66430;BME280;53242;51.694;10.006;2023-02-21T04:28:11;99704.44;;;8.81;89.22
66430;BME280;53242;51.694;10.006;2023-02-21T04:30:33;99703.66;;;8.72;89.49
66430;BME280;53242;51.694;10.006;2023-02-21T04:32:56;99699.16;;;8.81;89.27
66430;BME280;53242;51.694;10.006;2023-02-21T04:35:19;99698.22;;;8.74;89.26
66430;BME280;53242;51.694;10.006;2023-02-21T04:37:41;99703.16;;;8.77;89.44
66430;BME280;53242;51.694;10.006;2023-02-21T04:40:09;99695.25;;;8.77;89.19
66430;BME280;53242;51.694;10.006;2023-02-21T04:42:32;99694.53;;;8.83;89.19
66430;BME280;53242;51.694;10.006;2023-02-21T04:44:54;99693.94;;;8.73;89.57
66430;BME280;53242;51.694;10.006;2023-02-21T04:47:16;99694.72;;;8.82;89.01
66430;BME280;53242;51.694;10.006;2023-02-21T04:49:39;99696.25;;;8.76;89.28
66430;BME280;53242;51.694;10.006;2023-02-21T04:52:01;99695.25;;;8.77;89.17
66430;BME280;53242;51.694;10.006;2023-02-21T04:54:24;99687.38;;;8.77;89.25
66430;BME280;53242;51.694;10.006;2023-02-21T04:56:46;99679.09;;;8.80;89.06
66430;BME280;53242;51.694;10.006;2023-02-21T04:59:08;99685.31;;;8.87;88.79
66430;BME280;53242;51.694;10.006;2023-02-21T05:01:31;99677.16;;;8.74;89.82
66430;BME280;53242;51.694;10.006;2023-02-21T05:03:53;99677.16;;;8.74;89.24
66430;BME280;53242;51.694;10.006;2023-02-21T05:06:20;99688.25;;;8.84;88.70
66430;BME280;53242;51.694;10.006;2023-02-21T05:08:43;99679.47;;;8.77;89.27
66430;BME280;53242;51.694;10.006;2023-02-21T05:11:06;99686.19;;;8.80;89.23
66430;BME280;53242;51.694;10.006;2023-02-21T05:13:30;99678.72;;;8.83;89.03
66430;BME280;53242;51.694;10.006;2023-02-21T05:15:52;99671.56;;;8.77;89.36
66430;BME280;53242;51.694;10.006;2023-02-21T05:18:15;99673.75;;;8.74;89.27
66430;BME280;53242;51.694;10.006;2023-02-21T05:20:43;99667.31;;;8.76;89.22
66430;BME280;53242;51.694;10.006;2023-02-21T05:23:06;99668.56;;;8.80;89.05
66430;BME280;53242;51.694;10.006;2023-02-21T05:25:28;99660.22;;;8.77;88.91
66430;BME280;53242;51.694;10.006;2023-02-21T05:27:52;99659.31;;;8.84;88.55
66430;BME280;53242;51.694;10.006;2023-02-21T05:30:17;99659.59;;;8.75;88.98
66430;BME280;53242;51.694;10.006;2023-02-21T05:32:40;99659.22;;;8.78;88.78
66430;BME280;53242;51.694;10.006;2023-02-21T05:35:03;99649.34;;;8.80;88.57
66430;BME280;53242;51.694;10.006;2023-02-21T05:37:26;99660.22;;;8.77;88.51
66430;BME280;53242;51.694;10.006;2023-02-21T05:39:48;99653.16;;;8.77;88.37
66430;BME280;53242;51.694;10.006;2023-02-21T05:42:11;99656.50;;;8.71;88.78
66430;BME280;53242;51.694;10.006;2023-02-21T05:44:33;99665.84;;;8.74;88.72
66430;BME280;53242;51.694;10.006;2023-02-21T05:46:55;99652.69;;;8.74;88.76
66430;BME280;53242;51.694;10.006;2023-02-21T05:49:18;99655.66;;;8.70;88.75
66430;BME280;53242;51.694;10.006;2023-02-21T05:51:42;99655.78;;;8.77;88.47
66430;BME280;53242;51.694;10.006;2023-02-21T05:54:06;99646.78;;;8.71;88.92
66430;BME280;53242;51.694;10.006;2023-02-21T05:56:29;99658.84;;;8.66;88.92
66430;BME280;53242;51.694;10.006;2023-02-21T05:58:51;99655.22;;;8.67;88.87
66430;BME280;53242;51.694;10.006;2023-02-21T06:01:14;99668.66;;;8.72;88.40
66430;BME280;53242;51.694;10.006;2023-02-21T06:03:36;99669.28;;;8.74;88.26
66430;BME280;53242;51.694;10.006;2023-02-21T06:05:59;99673.44;;;8.68;88.33
66430;BME280;53242;51.694;10.006;2023-02-21T06:08:21;99680.69;;;8.66;88.59
66430;BME280;53242;51.694;10.006;2023-02-21T06:10:44;99677.72;;;8.69;88.42
66430;BME280;53242;51.694;10.006;2023-02-21T06:13:06;99684.06;;;8.75;88.29
66430;BME280;53242;51.694;10.006;2023-02-21T06:15:28;99682.53;;;8.66;88.45
66430;BME280;53242;51.694;10.006;2023-02-21T06:17:51;99688.81;;;8.80;87.95
66430;BME280;53242;51.694;10.006;2023-02-21T06:20:13;99696.28;;;8.68;88.17
66430;BME280;53242;51.694;10.006;2023-02-21T06:22:37;99691.97;;;8.75;87.95
66430;BME280;53242;51.694;10.006;2023-02-21T06:25:00;99699.06;;;8.75;87.93
66430;BME280;53242;51.694;10.006;2023-02-21T06:27:22;99701.84;;;8.73;88.19
66430;BME280;53242;51.694;10.006;2023-02-21T06:29:45;99702.41;;;8.68;88.29
66430;BME280;53242;51.694;10.006;2023-02-21T06:32:07;99706.19;;;8.66;88.68
66430;BME280;53242;51.694;10.006;2023-02-21T06:34:30;99708.19;;;8.64;88.79
66430;BME280;53242;51.694;10.006;2023-02-21T06:36:54;99701.22;;;8.71;88.29
66430;BME280;53242;51.694;10.006;2023-02-21T06:39:16;99704.72;;;8.63;88.99
66430;BME280;53242;51.694;10.006;2023-02-21T06:41:38;99707.28;;;8.71;88.43
66430;BME280;53242;51.694;10.006;2023-02-21T06:44:01;99706.81;;;8.68;88.55
66430;BME280;53242;51.694;10.006;2023-02-21T06:46:27;99706.81;;;8.68;88.41
66430;BME280;53242;51.694;10.006;2023-02-21T06:48:50;99710.19;;;8.62;88.74
66430;BME280;53242;51.694;10.006;2023-02-21T06:51:12;99708.75;;;8.74;88.30
66430;BME280;53242;51.694;10.006;2023-02-21T06:53:36;99714.09;;;8.66;88.63
66430;BME280;53242;51.694;10.006;2023-02-21T06:55:59;99717.19;;;8.69;88.32
66430;BME280;53242;51.694;10.006;2023-02-21T06:58:21;99712.91;;;8.68;88.32
66430;BME280;53242;51.694;10.006;2023-02-21T07:00:44;99716.03;;;8.72;88.30
66430;BME280;53242;51.694;10.006;2023-02-21T07:03:06;99717.53;;;8.66;88.48
66430;BME280;53242;51.694;10.006;2023-02-21T07:05:28;99714.19;;;8.72;88.40
66430;BME280;53242;51.694;10.006;2023-02-21T07:07:55;99715.56;;;8.68;88.55
66430;BME280;53242;51.694;10.006;2023-02-21T07:10:18;99713.31;;;8.80;87.90
66430;BME280;53242;51.694;10.006;2023-02-21T07:12:40;99725.72;;;8.71;88.23
66430;BME280;53242;51.694;10.006;2023-02-21T07:15:02;99718.56;;;8.80;88.13
66430;BME280;53242;51.694;10.006;2023-02-21T07:17:25;99711.75;;;8.71;88.23
66430;BME280;53242;51.694;10.006;2023-02-21T07:19:47;99717.91;;;8.78;87.96
66430;BME280;53242;51.694;10.006;2023-02-21T07:22:10;99724.53;;;8.74;88.12
66430;BME280;53242;51.694;10.006;2023-02-21T07:24:33;99727.47;;;8.79;88.00
66430;BME280;53242;51.694;10.006;2023-02-21T07:26:55;99724.81;;;8.79;87.96
66430;BME280;53242;51.694;10.006;2023-02-21T07:29:17;99727.13;;;8.82;87.90
66430;BME280;53242;51.694;10.006;2023-02-21T07:31:40;99731.06;;;8.78;88.14
66430;BME280;53242;51.694;10.006;2023-02-21T07:34:02;99729.56;;;8.84;87.69
66430;BME280;53242;51.694;10.006;2023-02-21T07:36:25;99728.03;;;8.89;87.36
66430;BME280;53242;51.694;10.006;2023-02-21T07:38:48;99742.38;;;8.87;87.45
66430;BME280;53242;51.694;10.006;2023-02-21T07:41:10;99742.91;;;8.82;87.63
66430;BME280;53242;51.694;10.006;2023-02-21T07:43:34;99747.00;;;8.85;87.93
66430;BME280;53242;51.694;10.006;2023-02-21T07:45:57;99748.19;;;8.82;87.99
66430;BME280;53242;51.694;10.006;2023-02-21T07:48:19;99761.72;;;8.94;87.96
66430;BME280;53242;51.694;10.006;2023-02-21T07:50:43;99751.09;;;8.87;88.20
66430;BME280;53242;51.694;10.006;2023-02-21T07:53:06;99756.28;;;8.96;87.52
66430;BME280;53242;51.694;10.006;2023-02-21T07:55:28;99749.44;;;8.86;87.84
66430;BME280;53242;51.694;10.006;2023-02-21T07:57:50;99753.38;;;8.91;87.81
66430;BME280;53242;51.694;10.006;2023-02-21T08:00:13;99748.50;;;9.02;87.33
66430;BME280;53242;51.694;10.006;2023-02-21T08:02:35;99754.16;;;8.91;88.02
66430;BME280;53242;51.694;10.006;2023-02-21T08:04:58;99755.28;;;8.97;87.51
66430;BME280;53242;51.694;10.006;2023-02-21T08:07:20;99766.91;;;9.02;87.60
66430;BME280;53242;51.694;10.006;2023-02-21T08:09:43;99768.56;;;9.03;87.83
66430;BME280;53242;51.694;10.006;2023-02-21T08:12:05;99765.28;;;9.01;87.43
66430;BME280;53242;51.694;10.006;2023-02-21T08:14:27;99766.28;;;9.00;87.63
66430;BME280;53242;51.694;10.006;2023-02-21T08:16:50;99779.47;;;9.00;87.73
66430;BME280;53242;51.694;10.006;2023-02-21T08:19:12;99773.59;;;9.13;87.28
66430;BME280;53242;51.694;10.006;2023-02-21T08:21:35;99780.84;;;9.11;87.11
66430;BME280;53242;51.694;10.006;2023-02-21T08:23:57;99786.63;;;9.07;87.52
66430;BME280;53242;51.694;10.006;2023-02-21T08:26:20;99792.78;;;8.99;87.82
66430;BME280;53242;51.694;10.006;2023-02-21T08:28:43;99792.13;;;9.20;87.10
66430;BME280;53242;51.694;10.006;2023-02-21T08:31:05;99792.03;;;9.13;86.86
66430;BME280;53242;51.694;10.006;2023-02-21T08:33:28;99795.81;;;9.11;87.28
66430;BME280;53242;51.694;10.006;2023-02-21T08:35:50;99797.22;;;9.21;87.08
66430;BME280;53242;51.694;10.006;2023-02-21T08:38:13;99794.28;;;9.16;87.24
66430;BME280;53242;51.694;10.006;2023-02-21T08:40:35;99803.00;;;9.17;87.23
66430;BME280;53242;51.694;10.006;2023-02-21T08:42:59;99797.81;;;9.09;87.62
66430;BME280;53242;51.694;10.006;2023-02-21T08:45:22;99794.47;;;9.15;87.21
66430;BME280;53242;51.694;10.006;2023-02-21T08:47:45;99791.75;;;9.23;87.05
66430;BME280;53242;51.694;10.006;2023-02-21T08:50:08;99785.03;;;9.20;87.26
66430;BME280;53242;51.694;10.006;2023-02-21T08:52:30;99790.94;;;9.23;87.29
66430;BME280;53242;51.694;10.006;2023-02-21T08:54:53;99792.31;;;9.18;87.28
66430;BME280;53242;51.694;10.006;2023-02-21T08:57:15;99793.97;;;9.34;87.10
66430;BME280;53242;51.694;10.006;2023-02-21T08:59:42;99786.03;;;9.19;87.56
66430;BME280;53242;51.694;10.006;2023-02-21T09:02:06;99784.19;;;9.43;86.83
66430;BME280;53242;51.694;10.006;2023-02-21T09:04:34;99787.28;;;9.47;86.84
66430;BME280;53242;51.694;10.006;2023-02-21T09:06:57;99781.25;;;9.53;86.91
66430;BME280;53242;51.694;10.006;2023-02-21T09:09:19;99785.34;;;9.55;86.79
66430;BME280;53242;51.694;10.006;2023-02-21T09:11:41;99776.91;;;9.60;86.91
66430;BME280;53242;51.694;10.006;2023-02-21T09:14:08;99788.53;;;9.66;86.16
66430;BME280;53242;51.694;10.006;2023-02-21T09:16:31;99789.28;;;9.75;85.97
66430;BME280;53242;51.694;10.006;2023-02-21T09:18:55;99788.09;;;9.77;86.16
66430;BME280;53242;51.694;10.006;2023-02-21T09:21:18;99781.00;;;9.93;85.42
66430;BME280;53242;51.694;10.006;2023-02-21T09:23:40;99784.00;;;9.90;85.30
66430;BME280;53242;51.694;10.006;2023-02-21T09:26:02;99777.38;;;9.94;85.16
66430;BME280;53242;51.694;10.006;2023-02-21T09:28:25;99782.53;;;10.02;85.08
66430;BME280;53242;51.694;10.006;2023-02-21T09:30:48;99774.34;;;10.12;84.42
66430;BME280;53242;51.694;10.006;2023-02-21T09:33:11;99782.97;;;10.20;83.94
66430;BME280;53242;51.694;10.006;2023-02-21T09:35:34;99780.31;;;10.35;83.46
66430;BME280;53242;51.694;10.006;2023-02-21T09:37:57;99780.69;;;10.47;83.16
66430;BME280;53242;51.694;10.006;2023-02-21T09:40:26;99782.53;;;10.53;82.59
66430;BME280;53242;51.694;10.006;2023-02-21T09:42:52;99768.78;;;10.58;82.99
66430;BME280;53242;51.694;10.006;2023-02-21T09:45:16;99781.75;;;10.53;82.91
66430;BME280;53242;51.694;10.006;2023-02-21T09:47:39;99771.72;;;10.48;82.54
66430;BME280;53242;51.694;10.006;2023-02-21T09:50:24;99769.25;;;10.62;81.63
66430;BME280;53242;51.694;10.006;2023-02-21T09:52:48;99776.09;;;10.56;81.87
66430;BME280;53242;51.694;10.006;2023-02-21T09:55:34;99769.88;;;10.64;81.34
66430;BME280;53242;51.694;10.006;2023-02-21T09:57:57;99768.94;;;10.50;81.82
66430;BME280;53242;51.694;10.006;2023-02-21T10:00:22;99774.56;;;10.47;81.31
66430;BME280;53242;51.694;10.006;2023-02-21T10:02:56;99780.69;;;10.47;81.57
66430;BME280;53242;51.694;10.006;2023-02-21T10:08:18;99784.06;;;10.41;81.46
66430;BME280;53242;51.694;10.006;2023-02-21T10:10:47;99772.19;;;10.52;80.58
66430;BME280;53242;51.694;10.006;2023-02-21T10:13:42;99784.38;;;10.53;81.03
66430;BME280;53242;51.694;10.006;2023-02-21T10:16:31;99778.63;;;10.64;80.67
66430;BME280;53242;51.694;10.006;2023-02-21T10:19:15;99774.09;;;10.80;80.38
66430;BME280;53242;51.694;10.006;2023-02-21T10:21:42;99781.75;;;10.75;80.54
66430;BME280;53242;51.694;10.006;2023-02-21T10:24:20;99779.06;;;10.90;79.91
66430;BME280;53242;51.694;10.006;2023-02-21T10:26:49;99780.94;;;10.96;79.83
66430;BME280;53242;51.694;10.006;2023-02-21T10:29:20;99783.72;;;10.88;79.93
66430;BME280;53242;51.694;10.006;2023-02-21T10:31:45;99789.69;;;10.96;79.27
66430;BME280;53242;51.694;10.006;2023-02-21T10:34:18;99784.22;;;10.98;79.32
66430;BME280;53242;51.694;10.006;2023-02-21T10:36:41;99791.19;;;11.34;78.64
66430;BME280;53242;51.694;10.006;2023-02-21T10:39:20;99786.34;;;11.38;77.59
66430;BME280;53242;51.694;10.006;2023-02-21T10:41:44;99792.31;;;11.18;77.53
66430;BME280;53242;51.694;10.006;2023-02-21T10:44:09;99787.03;;;11.18;77.36
66430;BME280;53242;51.694;10.006;2023-02-21T10:46:46;99787.69;;;11.27;77.26
66430;BME280;53242;51.694;10.006;2023-02-21T10:51:43;99790.88;;;11.15;77.82
66430;BME280;53242;51.694;10.006;2023-02-21T10:54:19;99789.03;;;11.16;77.95
66430;BME280;53242;51.694;10.006;2023-02-21T10:56:42;99789.50;;;10.98;78.45
66430;BME280;53242;51.694;10.006;2023-02-21T10:59:05;99785.44;;;11.02;77.65
66430;BME280;53242;51.694;10.006;2023-02-21T11:03:58;99783.56;;;10.96;78.39
66430;BME280;53242;51.694;10.006;2023-02-21T11:06:25;99789.94;;;11.01;77.90
66430;BME280;53242;51.694;10.006;2023-02-21T11:08:48;99784.59;;;10.95;78.36
66430;BME280;53242;51.694;10.006;2023-02-21T11:11:11;99778.47;;;11.16;77.61
66430;BME280;53242;51.694;10.006;2023-02-21T11:13:33;99780.81;;;11.32;77.18
66430;BME280;53242;51.694;10.006;2023-02-21T11:16:19;99781.78;;;11.25;77.15
66430;BME280;53242;51.694;10.006;2023-02-21T11:18:43;99785.59;;;11.15;77.46
66430;BME280;53242;51.694;10.006;2023-02-21T11:21:12;99783.66;;;11.02;77.21
66430;BME280;53242;51.694;10.006;2023-02-21T11:23:35;99784.22;;;10.98;76.93
66430;BME280;53242;51.694;10.006;2023-02-21T11:26:08;99789.28;;;10.99;76.80
66430;BME280;53242;51.694;10.006;2023-02-21T11:28:37;99776.78;;;11.08;77.03
66430;BME280;53242;51.694;10.006;2023-02-21T11:33:22;99776.47;;;11.18;77.01
66430;BME280;53242;51.694;10.006;2023-02-21T11:35:53;99763.50;;;11.23;76.58
66430;BME280;53242;51.694;10.006;2023-02-21T11:38:29;99769.63;;;11.30;76.79
66430;BME280;53242;51.694;10.006;2023-02-21T11:40:52;99772.53;;;11.42;76.17
66430;BME280;53242;51.694;10.006;2023-02-21T11:46:16;99767.50;;;11.47;75.35
66430;BME280;53242;51.694;10.006;2023-02-21T11:51:32;99760.53;;;11.40;74.78
66430;BME280;53242;51.694;10.006;2023-02-21T11:53:54;99767.19;;;11.29;75.73
66430;BME280;53242;51.694;10.006;2023-02-21T11:56:33;99758.56;;;11.48;74.69
66430;BME280;53242;51.694;10.006;2023-02-21T11:59:11;99765.22;;;11.38;74.81
66430;BME280;53242;51.694;10.006;2023-02-21T12:04:45;99756.31;;;11.45;75.22
66430;BME280;53242;51.694;10.006;2023-02-21T12:10:45;99753.63;;;11.39;74.52
66430;BME280;53242;51.694;10.006;2023-02-21T12:13:30;99754.78;;;11.29;74.46
66430;BME280;53242;51.694;10.006;2023-02-21T12:27:43;99733.75;;;11.14;75.69
66430;BME280;53242;51.694;10.006;2023-02-21T12:32:53;99734.59;;;11.22;76.21
66430;BME280;53242;51.694;10.006;2023-02-21T12:38:02;99737.47;;;11.27;75.27
66430;BME280;53242;51.694;10.006;2023-02-21T12:40:28;99727.63;;;11.14;75.93
66430;BME280;53242;51.694;10.006;2023-02-21T12:43:27;99734.19;;;11.18;75.47
66430;BME280;53242;51.694;10.006;2023-02-21T12:46:20;99726.09;;;11.26;75.17
66430;BME280;53242;51.694;10.006;2023-02-21T12:49:05;99729.72;;;11.18;75.44
66430;BME280;53242;51.694;10.006;2023-02-21T12:51:35;99732.16;;;11.20;75.58
66430;BME280;53242;51.694;10.006;2023-02-21T12:54:06;99728.66;;;11.13;75.62
66430;BME280;53242;51.694;10.006;2023-02-21T12:57:05;99728.97;;;11.31;75.14
66430;BME280;53242;51.694;10.006;2023-02-21T12:59:42;99730.94;;;11.23;75.63
66430;BME280;53242;51.694;10.006;2023-02-21T13:02:29;99724.00;;;11.15;75.37
66430;BME280;53242;51.694;10.006;2023-02-21T13:04:59;99723.19;;;11.14;75.86
66430;BME280;53242;51.694;10.006;2023-02-21T13:07:40;99724.94;;;11.07;76.07
66430;BME280;53242;51.694;10.006;2023-02-21T13:10:29;99722.34;;;11.14;75.80
66430;BME280;53242;51.694;10.006;2023-02-21T13:13:01;99714.31;;;11.22;75.71
66430;BME280;53242;51.694;10.006;2023-02-21T13:15:28;99715.47;;;11.13;76.11
66430;BME280;53242;51.694;10.006;2023-02-21T13:18:05;99711.19;;;11.12;76.08
66430;BME280;53242;51.694;10.006;2023-02-21T13:20:36;99717.97;;;11.28;75.64
66430;BME280;53242;51.694;10.006;2023-02-21T13:23:20;99716.75;;;11.24;75.97
66430;BME280;53242;51.694;10.006;2023-02-21T13:29:23;99714.50;;;11.21;76.22
66430;BME280;53242;51.694;10.006;2023-02-21T13:31:54;99706.69;;;11.12;76.76
66430;BME280;53242;51.694;10.006;2023-02-21T13:34:21;99706.34;;;11.15;76.55
66430;BME280;53242;51.694;10.006;2023-02-21T13:36:46;99707.94;;;11.16;76.18
66430;BME280;53242;51.694;10.006;2023-02-21T13:39:27;99702.50;;;11.18;76.39
66430;BME280;53242;51.694;10.006;2023-02-21T13:42:04;99706.84;;;11.04;76.77
66430;BME280;53242;51.694;10.006;2023-02-21T13:44:32;99698.53;;;11.07;76.66
66430;BME280;53242;51.694;10.006;2023-02-21T13:57:43;99703.09;;;10.92;76.65
66430;BME280;53242;51.694;10.006;2023-02-21T14:05:16;99690.91;;;10.91;76.87
66430;BME280;53242;51.694;10.006;2023-02-21T14:07:44;99703.16;;;10.98;76.81
66430;BME280;53242;51.694;10.006;2023-02-21T14:13:16;99704.78;;;10.99;77.22
66430;BME280;53242;51.694;10.006;2023-02-21T14:15:44;99696.56;;;10.88;77.43
66430;BME280;53242;51.694;10.006;2023-02-21T14:18:16;99703.28;;;10.90;77.40
66430;BME280;53242;51.694;10.006;2023-02-21T14:20:40;99700.00;;;10.88;77.68
66430;BME280;53242;51.694;10.006;2023-02-21T14:23:03;99695.81;;;10.94;77.40
66430;BME280;53242;51.694;10.006;2023-02-21T14:25:26;99697.00;;;10.91;77.22
66430;BME280;53242;51.694;10.006;2023-02-21T14:27:50;99692.97;;;10.95;77.15
66430;BME280;53242;51.694;10.006;2023-02-21T14:30:31;99697.63;;;10.93;77.14
66430;BME280;53242;51.694;10.006;2023-02-21T14:33:01;99694.13;;;10.86;77.29
66430;BME280;53242;51.694;10.006;2023-02-21T14:35:34;99698.91;;;10.97;77.13